This is the latest recevied weather packets stored in our database for station/object OE-1066. If no packets are shown the sender has not sent any weather packets the latest 10 day(s).
| Time | Temp. | Humidity | Pressure | Rain* | Wind** | Luminosity | Snow |
|---|---|---|---|---|---|---|---|
| 1788417669 | 18.89° C | 69% | 1022 hPa | - | - | - | - |
| 1788415870 | 18.33° C | 70% | 1022.1 hPa | - | - | - | - |
| 1788414069 | 17.78° C | 71% | 1021.1 hPa | - | - | - | - |
| 1788412270 | 17.78° C | 71% | 1021.1 hPa | - | - | - | - |
| 1788410469 | 17.78° C | 73% | 1021.2 hPa | - | - | - | - |
| 1788408670 | 17.78° C | 74% | 1021.2 hPa | - | - | - | - |
| 1788405070 | 18.33° C | 72% | 1021.1 hPa | - | - | - | - |
| 1788401470 | 18.33° C | 69% | 1021 hPa | - | - | - | - |
| 1788372670 | 23.33° C | 51% | 1018.1 hPa | - | - | - | - |
| 1788365470 | 25° C | 46% | 1017.8 hPa | - | - | - | - |
| 1788358270 | 25.56° C | 45% | 1017.8 hPa | - | - | - | - |
| 1788356469 | 25° C | 45% | 1017.8 hPa | - | - | - | - |
| 1788354670 | 25° C | 45% | 1018.9 hPa | - | - | - | - |
| 1788352870 | 25° C | 43% | 1018.9 hPa | - | - | - | - |
| 1788351070 | 24.44° C | 46% | 1018.9 hPa | - | - | - | - |
| 1788347470 | 23.89° C | 51% | 1019.1 hPa | - | - | - | - |
| 1788345670 | 23.33° C | 52% | 1019.2 hPa | - | - | - | - |
| 1788343870 | 23.33° C | 52% | 1020.2 hPa | - | - | - | - |
| 1788342070 | 22.78° C | 54% | 1020.3 hPa | - | - | - | - |
| 1788340270 | 22.22° C | 56% | 1020.4 hPa | - | - | - | - |
| 1788338469 | 21.67° C | 59% | 1020.5 hPa | - | - | - | - |
| 1788336670 | 20.56° C | 62% | 1020.7 hPa | - | - | - | - |
| 1788334870 | 18.89° C | 66% | 1020.9 hPa | - | - | - | - |
| 1788333190 | 17.78° C | 69% | 1021.1 hPa | - | - | - | - |
| 1788331270 | 16.67° C | 72% | 1021.3 hPa | - | - | - | - |
* Rain since midnight (hover to see other rain measurements)
** Current wind speed in m/s (hover to see current wind gust speed)